Urucara, Brazil
Current Conditions -  °F | °C
As of 7:00 AM on Friday 28 Nov 2014 (Local Time) from SBIC Reporting Station
Broken Clouds Broken Clouds  
Wind Chill: 77°   Ceiling: 10000
Heat Index: 78°   Visibility: 6mi
Dew Point: 75°   Wind: 6mph
Humidity: 94%   Direction: 140°SE
Pressure: 29.88"   Gusts: NA
Location:  2.52°S, 57.75°W
Report Text: SBIC 281100Z 14005KT 9999 SCT008 BKN100 25/24 Q1012
Loading
Personal Weather Stations






























Interactive Weather Map New forecast layout! Learn more

10-Day Weather Forecast

Advertisements
Track Severe Weather on mobile